Flight Number: EUR1438 Duration: 0:45
Departure: Gatwick Airport (EGKK) at 07:00 Distance: 197 Nm
Arrival: Amsterdam Schiphol (EHAM) at 07:45 Equipment: B737

Weather Information
London / Gatwick Airport, United Kingdom (EGKK) 51-09N 000-11W 0M Feb 19, 2018 - 02:50 AM EST / 2018.02.19 0750 UTC
Wind: from the SW (220 degrees) at 3 MPH (3 KT):0
Visibility: 1 mile(s):0
Sky conditions: mostly cloudy Weather: light drizzle Temperature: 44 F (7 C) Dew Point: 44 F (7 C) Relative Humidity: 100% Pressure (altimeter): 30.03 in. Hg (1017 hPa)
ob: EGKK 190750Z 22003KT 1800 -DZ BKN003 07/07 Q1017 cycle: 8
Sunrise: 07:08 Sunset: 17:20 (UTC)

Amsterdam Airport Schiphol, Netherlands (EHAM) 52-18N 004-46E -2M Feb 19, 2018 - 02:55 AM EST / 2018.02.19 0755 UTC
Wind: from the S (170 degrees) at 7 MPH (6 KT) (direction variable):0
Visibility: 3 mile(s):0
Sky conditions: mostly cloudy Weather: light rain; mist Temperature: 33 F (1 C)
Windchill: 26 F (-3 C):1 Dew Point: 30 F (-1 C) Relative Humidity: 86% Pressure (altimeter): 30.09 in. Hg (1019 hPa)
ob: EHAM 190755Z 17006KT 140V200 5000 -RA BR FEW033 BKN045 01/M01 Q1019 BECMG 9000 cycle: 8
Sunrise: 06:51 Sunset: 16:58 (UTC)

TAF:2018/02/19 06:27 TAF TAF EHAM 190456Z 1906/2012 16006KT 8000 NSC BECMG 1907/1909 CAVOK PROB30 2001/2008 4000 MIFG BR

Previous Pireps for this route
Date Aircraft Flight time Fuel used Landing rate On time
2013-01-16B7370.3939000Charter
2013-07-21DHC81.1028580No
2014-02-24A32101.4692460Charter
2014-10-04B7371.0848000No
2014-10-15DHC80.5911850Yes
2015-04-15B7770.53134980Charter
2015-04-19B1900D00.51754-157Charter
2015-05-09B7770,486780-53Charter
2015-05-09B7770.4867800Charter
2015-05-25B7370.5059150No
2015-06-11DHC80.558890Yes
2015-10-09B73700.576900-322Charter
2015-12-30B73701.046566-444Yes
2016-06-12B73700.595220-100No
2016-09-14B7370-50No
2016-11-11B7771.3050000Charter
2017-02-21B7370.0028480-559No
2017-10-07DHC80.591927-143No
(pireps marked green are flown by you)

Route map